Time;durP1;ratioP1;P1;durP2;ratioP2;P2;SDS_P1;SDS_P2;PMS_P1;PMS_P2;Temp;Humidity;BMP_temperature;BMP_pressure;BME280_temperature;BME280_humidity;BME280_pressure;Samples;Min_cycle;Max_cycle;Signal;HPM_P1;HPM_P2
2021/12/21 00:03:45;;;;;;;18.80;8.80;;;;;;;0.18;63.18;99539.30;212271;1326;139597;-63
2021/12/21 00:08:52;;;;;;;19.40;8.40;;;;;;;0.27;63.35;99544.60;212181;1322;140704;-60
2021/12/21 00:14:10;;;;;;;21.20;9.70;;;;;;;0.36;63.39;99536.63;212022;1325;140930;-59
2021/12/21 00:24:29;;;;;;;16.70;7.10;;;;;;;0.44;63.35;99531.65;212878;1325;138702;-60
2021/12/21 00:29:32;;;;;;;13.40;6.50;;;;;;;0.52;63.40;99538.35;213131;1323;138394;-61
2021/12/21 00:34:35;;;;;;;12.90;5.50;;;;;;;0.58;63.27;99546.64;212319;1325;139045;-63
2021/12/21 00:39:38;;;;;;;7.90;3.80;;;;;;;0.59;63.07;99549.59;212858;1322;139011;-57
2021/12/21 00:44:41;;;;;;;5.60;3.30;;;;;;;0.56;63.19;99547.53;212210;1326;138658;-63
2021/12/21 00:49:46;;;;;;;8.20;3.80;;;;;;;0.53;63.07;99557.89;212987;1322;139612;-60
2021/12/21 00:54:49;;;;;;;4.70;2.30;;;;;;;0.43;62.85;99563.59;212491;1321;138192;-58
2021/12/21 00:59:52;;;;;;;9.10;3.50;;;;;;;0.34;62.87;99562.84;213107;1324;140002;-60
2021/12/21 01:04:57;;;;;;;8.80;3.40;;;;;;;0.31;62.88;99564.27;212491;1328;138008;-62
2021/12/21 01:10:36;;;;;;;7.20;3.50;;;;;;;0.32;62.81;99557.98;212879;1322;138064;-60
2021/12/21 01:16:01;;;;;;;7.90;3.40;;;;;;;0.30;62.77;99562.53;213138;1323;138687;-62
2021/12/21 01:21:06;;;;;;;6.60;3.30;;;;;;;0.29;62.71;99563.95;213105;1321;138609;-59
2021/12/21 01:36:36;;;;;;;9.10;5.10;;;;;;;0.22;62.78;99570.65;213626;1320;139741;-59
2021/12/21 01:52:11;;;;;;;13.00;5.90;;;;;;;0.06;63.36;99569.98;213511;1322;138776;-60
2021/12/21 01:57:14;;;;;;;9.90;5.10;;;;;;;0.05;63.46;99560.20;214036;1321;138617;-59
2021/12/21 02:02:21;;;;;;;14.40;5.70;;;;;;;0.10;63.67;99561.20;213205;1323;140776;-60
2021/12/21 02:07:25;;;;;;;13.20;5.80;;;;;;;0.15;63.58;99567.41;212905;1323;140054;-62
2021/12/21 02:12:28;;;;;;;12.40;6.30;;;;;;;0.17;63.61;99562.51;213346;1322;139177;-61
2021/12/21 02:22:36;;;;;;;12.40;6.00;;;;;;;0.15;63.60;99561.31;212647;1325;138713;-60
2021/12/21 02:27:54;;;;;;;10.70;5.80;;;;;;;0.15;63.58;99562.88;212391;1324;139465;-59
2021/12/21 02:32:57;;;;;;;14.30;5.70;;;;;;;0.14;63.58;99560.30;212784;1325;138686;-60
2021/12/21 02:38:00;;;;;;;12.50;5.90;;;;;;;0.15;63.56;99555.90;212630;1325;139014;-59
2021/12/21 02:43:05;;;;;;;10.70;5.70;;;;;;;0.16;63.65;99557.11;212599;1322;138894;-65
2021/12/21 02:48:09;;;;;;;;;;;;;;;0.15;63.76;99557.64;212643;1327;138678;-65
2021/12/21 02:53:12;;;;;;;11.40;5.80;;;;;;;0.14;63.68;99557.67;212957;1322;127137;-61
2021/12/21 02:58:15;;;;;;;15.20;6.70;;;;;;;0.09;63.90;99553.36;212008;1328;139197;-63
2021/12/21 03:03:19;;;;;;;15.20;6.90;;;;;;;0.04;63.84;99549.92;212488;1327;139294;-62
2021/12/21 03:08:36;;;;;;;14.00;7.30;;;;;;;0.06;63.92;99545.02;212306;1323;138959;-61
2021/12/21 03:19:14;;;;;;;17.10;7.40;;;;;;;0.11;64.02;99563.63;212914;1320;138980;-58
2021/12/21 03:24:17;;;;;;;15.20;7.40;;;;;;;0.11;64.20;99560.15;212603;1328;138599;-63
2021/12/21 03:29:20;;;;;;;19.50;8.90;;;;;;;0.13;64.33;99555.23;212478;1323;138467;-59
2021/12/21 03:34:24;;;;;;;16.60;8.40;;;;;;;0.15;64.36;99561.31;213583;1327;139211;-61
2021/12/21 03:39:27;;;;;;;17.80;8.50;;;;;;;0.12;64.41;99561.34;212301;1320;138144;-63
2021/12/21 03:44:30;;;;;;;17.10;8.60;;;;;;;0.10;64.36;99555.27;212256;1329;138812;-61
2021/12/21 03:54:52;;;;;;;13.10;7.40;;;;;;;0.00;64.85;99563.06;212666;1327;138534;-61
2021/12/21 03:59:57;;;;;;;15.60;8.80;;;;;;;-0.05;65.11;99574.80;212260;1329;138449;-61
2021/12/21 04:05:00;;;;;;;17.40;8.40;;;;;;;-0.08;65.60;99573.26;212622;1322;139880;-62
2021/12/21 04:10:06;;;;;;;18.50;8.50;;;;;;;-0.08;65.75;99579.54;212519;1325;139338;-61
2021/12/21 04:15:11;;;;;;;16.20;7.70;;;;;;;-0.05;65.70;99579.16;212467;1328;139365;-64
2021/12/21 04:20:14;;;;;;;14.60;7.80;;;;;;;0.01;65.72;99582.07;212252;1328;138734;-62
2021/12/21 04:25:17;;;;;;;15.90;7.70;;;;;;;0.01;65.46;99582.60;212622;1327;139239;-59
2021/12/21 04:30:20;;;;;;;16.90;7.60;;;;;;;0.02;65.55;99593.90;212660;1324;139326;-64
2021/12/21 04:35:23;;;;;;;18.60;7.70;;;;;;;0.03;65.36;99594.59;213190;1322;139170;-58
2021/12/21 04:40:39;;;;;;;13.60;7.20;;;;;;;0.04;65.34;99592.16;213394;1322;138902;-62
2021/12/21 04:45:42;;;;;;;16.00;6.70;;;;;;;0.05;65.26;99590.21;213040;1321;139333;-64
2021/12/21 04:50:45;;;;;;;11.80;5.60;;;;;;;0.05;64.91;99588.30;212234;1328;138808;-61
2021/12/21 04:55:49;;;;;;;12.10;5.60;;;;;;;0.04;64.83;99589.00;212947;1326;138547;-60
2021/12/21 05:00:52;;;;;;;11.80;5.60;;;;;;;0.05;64.76;99592.31;212244;1322;338138;-59
2021/12/21 05:05:55;;;;;;;20.90;12.90;;;;;;;0.12;64.93;99596.23;212205;1331;139073;-58
2021/12/21 05:11:03;;;;;;;12.20;6.20;;;;;;;0.27;65.01;99603.92;212085;1325;139308;-60
2021/12/21 05:16:07;;;;;;;12.90;6.10;;;;;;;0.30;64.71;99607.04;212651;1326;139762;-61
2021/12/21 05:21:10;;;;;;;9.30;5.70;;;;;;;0.32;64.40;99615.73;212970;1313;139553;-58
2021/12/21 05:26:13;;;;;;;11.10;6.30;;;;;;;0.34;64.34;99615.20;212251;1325;138581;-59
2021/12/21 05:31:16;;;;;;;15.20;7.80;;;;;;;0.36;64.57;99612.36;212482;1322;139481;-59
2021/12/21 05:36:20;;;;;;;15.90;6.40;;;;;;;0.47;64.44;99608.23;212953;1322;138682;-59
2021/12/21 05:41:28;;;;;;;12.00;5.50;;;;;;;0.44;64.21;99612.63;212634;1325;139391;-59
2021/12/21 05:46:32;;;;;;;9.20;5.10;;;;;;;0.42;64.19;99614.94;212899;1325;138574;-59
2021/12/21 05:51:34;;;;;;;11.00;5.90;;;;;;;0.42;64.06;99614.94;212540;1327;138221;-58
2021/12/21 05:56:38;;;;;;;10.20;5.50;;;;;;;0.41;64.07;99617.39;212550;1327;138790;-62
2021/12/21 06:01:41;;;;;;;9.90;5.90;;;;;;;0.39;64.02;99619.50;212422;1324;138740;-58
2021/12/21 06:06:44;;;;;;;12.10;6.40;;;;;;;0.38;64.02;99620.55;212514;1325;139005;-57
2021/12/21 06:12:01;;;;;;;10.30;6.00;;;;;;;0.40;64.20;99621.75;212301;1321;140600;-60
2021/12/21 06:27:34;;;;;;;17.10;6.90;;;;;;;0.41;64.08;99634.65;212375;1328;140437;-59
2021/12/21 06:32:37;;;;;;;12.60;6.20;;;;;;;0.44;64.14;99638.45;212488;1322;139635;-60
2021/12/21 06:37:41;;;;;;;13.80;6.70;;;;;;;0.44;63.98;99649.98;212099;1328;139529;-59
2021/12/21 06:42:46;;;;;;;14.60;7.00;;;;;;;0.45;64.09;99653.27;212621;1321;139776;-60
2021/12/21 06:53:11;;;;;;;18.30;8.10;;;;;;;0.46;63.96;99666.52;212626;1319;139005;-59
2021/12/21 06:58:14;;;;;;;17.90;7.40;;;;;;;0.52;64.12;99674.50;212993;1322;139471;-61
2021/12/21 07:03:17;;;;;;;16.80;7.60;;;;;;;0.57;64.02;99674.63;212454;1322;141554;-61
2021/12/21 07:08:27;;;;;;;13.60;6.90;;;;;;;0.60;64.03;99672.85;212722;1322;138937;-60
2021/12/21 07:18:52;;;;;;;14.80;6.00;;;;;;;0.56;63.60;99677.79;212063;1330;138599;-60
2021/12/21 07:23:55;;;;;;;9.00;5.30;;;;;;;0.58;63.70;99692.95;212465;1322;138495;-57
2021/12/21 07:28:58;;;;;;;10.10;5.60;;;;;;;0.61;63.60;99693.44;211951;1328;138480;-58
2021/12/21 07:34:03;;;;;;;13.70;6.30;;;;;;;0.62;63.39;99699.01;212897;1322;138637;-61
2021/12/21 07:39:06;;;;;;;14.00;7.00;;;;;;;0.59;63.41;99700.27;212687;1327;138705;-58
2021/12/21 07:44:10;;;;;;;16.30;7.50;;;;;;;0.59;63.69;99692.93;212581;1322;141118;-58
2021/12/21 07:49:14;;;;;;;13.50;6.20;;;;;;;0.63;63.61;99705.98;212266;1328;138565;-58
2021/12/21 07:54:18;;;;;;;15.00;5.70;;;;;;;0.65;63.46;99706.49;212042;1328;138971;-59
2021/12/21 07:59:21;;;;;;;17.60;7.40;;;;;;;0.64;63.45;99714.70;212304;1321;139759;-59
2021/12/21 08:04:27;;;;;;;15.10;6.80;;;;;;;0.62;63.47;99719.95;212443;1327;139577;-60
2021/12/21 08:09:37;;;;;;;13.20;6.30;;;;;;;0.59;63.50;99715.10;212356;1322;139510;-62
2021/12/21 08:14:42;;;;;;;13.60;6.10;;;;;;;0.60;63.28;99718.24;212620;1321;138767;-58
2021/12/21 08:19:46;;;;;;;11.10;5.60;;;;;;;0.60;63.40;99718.05;212055;1324;138663;-60
2021/12/21 08:24:49;;;;;;;10.30;5.60;;;;;;;0.64;63.20;99716.28;211999;1329;138484;-60
2021/12/21 08:29:52;;;;;;;9.90;5.40;;;;;;;0.62;62.93;99729.74;213056;1325;139081;-58
2021/12/21 08:34:55;;;;;;;9.90;5.00;;;;;;;0.70;63.14;99729.83;213050;1324;138608;-61
2021/12/21 08:39:58;;;;;;;9.80;4.70;;;;;;;0.82;62.93;99729.86;211981;1328;138279;-60
2021/12/21 08:45:06;;;;;;;7.80;4.80;;;;;;;0.87;62.68;99735.05;212558;1322;138373;-60
2021/12/21 08:50:11;;;;;;;6.30;3.40;;;;;;;0.97;62.54;99732.32;212505;1322;139830;-58
2021/12/21 08:55:17;;;;;;;8.00;3.50;;;;;;;1.00;62.09;99740.85;212941;1322;138671;-61
2021/12/21 09:00:21;;;;;;;7.40;3.70;;;;;;;1.05;61.99;99745.67;212600;1328;138867;-59
2021/12/21 09:05:27;;;;;;;7.00;3.90;;;;;;;1.16;62.01;99746.41;212837;1322;139898;-62
2021/12/21 09:10:31;;;;;;;6.00;3.60;;;;;;;1.16;61.62;99746.40;212156;1325;138751;-66
2021/12/21 09:15:35;;;;;;;6.00;3.40;;;;;;;1.24;61.81;99748.76;212084;1329;138461;-66
2021/12/21 09:20:38;;;;;;;3.70;1.80;;;;;;;1.25;61.56;99756.27;213029;1321;139611;-61
2021/12/21 09:25:41;;;;;;;3.70;1.70;;;;;;;1.25;61.46;99759.23;213195;1322;138451;-60
2021/12/21 09:30:45;;;;;;;3.30;2.20;;;;;;;1.26;61.56;99758.70;212928;1322;138614;-60
2021/12/21 09:35:51;;;;;;;5.30;2.00;;;;;;;1.25;61.70;99762.71;211961;1328;139016;-60
2021/12/21 09:40:55;;;;;;;5.40;1.30;;;;;;;1.22;61.91;99766.61;212657;1327;138388;-59
2021/12/21 09:45:58;;;;;;;2.00;1.00;;;;;;;1.11;61.85;99774.27;212055;1328;138497;-62
2021/12/21 09:51:01;;;;;;;1.80;1.10;;;;;;;0.95;62.10;99785.80;213199;1319;139015;-61
2021/12/21 09:56:06;;;;;;;4.00;1.40;;;;;;;0.83;62.27;99784.00;213253;1325;139370;-59
2021/12/21 10:01:09;;;;;;;2.80;1.20;;;;;;;0.71;62.74;99785.16;212379;1325;138663;-59
2021/12/21 10:06:12;;;;;;;3.40;1.90;;;;;;;0.66;62.86;99787.50;212670;1322;140287;-59
2021/12/21 10:11:21;;;;;;;4.60;2.10;;;;;;;0.64;63.12;99783.30;212734;1322;139753;-58
2021/12/21 10:16:24;;;;;;;4.50;2.50;;;;;;;0.65;63.09;99779.29;212463;1322;138631;-63
2021/12/21 10:21:27;;;;;;;5.60;2.90;;;;;;;0.69;63.28;99775.07;212162;1324;138601;-60
2021/12/21 10:26:30;;;;;;;7.50;2.90;;;;;;;0.71;63.20;99769.13;212552;1325;139231;-59
2021/12/21 10:31:39;;;;;;;336.50;192.10;;;;;;;0.78;63.55;99775.16;212801;1322;138472;-59
2021/12/21 10:36:51;;;;;;;6.80;3.80;;;;;;;1.07;64.05;99779.02;212625;1325;139375;-58
2021/12/21 10:42:04;;;;;;;9.70;3.80;;;;;;;1.31;63.55;99768.58;212295;1325;138911;-58
2021/12/21 10:47:11;;;;;;;9.40;4.20;;;;;;;1.48;63.10;99764.52;212566;1322;139905;-58
2021/12/21 10:52:15;;;;;;;5.90;3.40;;;;;;;1.61;62.99;99757.70;212915;1322;139365;-59
2021/12/21 10:57:21;;;;;;;4.10;2.80;;;;;;;1.62;62.24;99758.02;212756;1322;139358;-59
2021/12/21 11:02:32;;;;;;;6.30;3.10;;;;;;;1.61;61.81;99762.25;212185;1328;138621;-63
2021/12/21 11:12:46;;;;;;;9.90;3.50;;;;;;;1.48;61.15;99769.41;212303;1328;137802;-60
2021/12/21 11:17:49;;;;;;;7.30;3.90;;;;;;;1.45;61.21;99761.42;212427;1322;138665;-62
2021/12/21 11:22:53;;;;;;;8.60;4.10;;;;;;;1.38;61.05;99756.25;212695;1321;138324;-60
2021/12/21 11:28:00;;;;;;;9.00;4.00;;;;;;;1.36;61.07;99753.14;212540;1322;138119;-58
2021/12/21 11:33:07;;;;;;;7.70;3.40;;;;;;;1.31;60.92;99753.03;212387;1323;139049;-59
2021/12/21 11:38:12;;;;;;;5.70;2.80;;;;;;;1.32;60.85;99750.75;212975;1321;138453;-61
2021/12/21 11:43:20;;;;;;;3.30;2.20;;;;;;;1.33;60.35;99748.30;212876;1318;138265;-57
2021/12/21 11:48:31;;;;;;;4.80;2.40;;;;;;;1.26;59.98;99746.11;212455;1321;138659;-60
2021/12/21 11:53:37;;;;;;;3.50;2.20;;;;;;;1.25;60.03;99748.40;212573;1325;138613;-61
2021/12/21 11:58:42;;;;;;;4.90;2.40;;;;;;;1.28;59.93;99754.65;212657;1322;138418;-58
2021/12/21 12:04:14;;;;;;;4.20;2.00;;;;;;;1.35;59.63;99751.07;212670;1322;138738;-60
2021/12/21 12:09:35;;;;;;;3.10;1.90;;;;;;;1.48;59.29;99753.16;212629;1322;138314;-61
2021/12/21 12:14:41;;;;;;;7.00;2.20;;;;;;;1.56;58.91;99748.67;212228;1322;138329;-59
2021/12/21 12:19:55;;;;;;;4.20;2.00;;;;;;;1.62;58.54;99749.80;212043;1324;138610;-61
2021/12/21 12:24:59;;;;;;;5.10;2.20;;;;;;;1.59;57.89;99750.90;212403;1322;138354;-59
2021/12/21 12:30:11;;;;;;;4.30;1.70;;;;;;;1.55;57.67;99750.44;212540;1323;138543;-60
2021/12/21 12:35:21;;;;;;;4.10;1.80;;;;;;;1.53;57.08;99750.29;212693;1321;138881;-60
2021/12/21 12:40:31;;;;;;;4.40;1.80;;;;;;;1.46;56.59;99744.10;212811;1322;138348;-61
2021/12/21 12:45:45;;;;;;;3.60;1.70;;;;;;;1.51;56.52;99750.84;212195;1323;138676;-62
2021/12/21 12:50:50;;;;;;;3.40;1.60;;;;;;;1.53;56.50;99751.86;212194;1328;138567;-60
2021/12/21 12:55:58;;;;;;;3.10;1.40;;;;;;;1.50;56.33;99757.69;212333;1321;138299;-58
2021/12/21 13:01:34;;;;;;;3.80;2.00;;;;;;;1.50;55.91;99764.49;212565;1319;304016;-60
2021/12/21 13:06:39;;;;;;;2.90;1.50;;;;;;;1.45;55.51;99768.40;212584;1322;138325;-60
2021/12/21 13:11:46;;;;;;;3.20;1.90;;;;;;;1.38;55.16;99769.72;212433;1327;139448;-60
2021/12/21 13:16:51;;;;;;;3.20;1.70;;;;;;;1.36;55.07;99768.70;212039;1331;138698;-61
2021/12/21 13:21:57;;;;;;;6.30;2.20;;;;;;;1.32;54.75;99768.06;212181;1326;138358;-60
2021/12/21 13:27:08;;;;;;;4.60;2.10;;;;;;;1.25;54.77;99777.23;212818;1325;138529;-62
2021/12/21 13:32:14;;;;;;;3.90;2.10;;;;;;;1.17;54.47;99787.46;213406;1321;142670;-59
2021/12/21 13:37:19;;;;;;;4.10;1.90;;;;;;;1.09;54.34;99787.90;212291;1328;138412;-59
2021/12/21 13:42:27;;;;;;;5.80;2.40;;;;;;;0.98;54.13;99784.18;212844;1322;138992;-63
2021/12/21 13:47:42;;;;;;;4.90;2.60;;;;;;;0.90;54.09;99783.75;212668;1322;139549;-58
2021/12/21 13:52:48;;;;;;;;;;;;;;;0.84;53.88;99781.54;212183;1321;138539;-58
2021/12/21 13:57:52;;;;;;;5.50;2.80;;;;;;;0.78;53.81;99785.45;212520;1324;124854;-58
2021/12/21 14:03:15;;;;;;;4.90;2.80;;;;;;;0.72;53.75;99792.67;211828;1331;138660;-59
2021/12/21 14:08:19;;;;;;;9.40;3.80;;;;;;;0.66;53.72;99794.14;212485;1327;139386;-60
2021/12/21 14:13:30;;;;;;;7.20;3.10;;;;;;;0.59;53.67;99795.93;212038;1327;138841;-61
2021/12/21 14:18:39;;;;;;;18.30;9.70;;;;;;;0.60;54.27;99798.73;212114;1329;138735;-59
2021/12/21 14:23:46;;;;;;;5.10;3.20;;;;;;;0.71;54.28;99798.27;212175;1328;138773;-59
2021/12/21 14:28:54;;;;;;;7.80;3.30;;;;;;;0.68;53.77;99793.05;212011;1328;138668;-59
2021/12/21 14:34:01;;;;;;;6.60;3.30;;;;;;;0.62;53.46;99795.91;212345;1325;138362;-59
2021/12/21 14:39:09;;;;;;;9.90;4.20;;;;;;;0.51;53.41;99798.64;212340;1321;138525;-59
2021/12/21 14:44:24;;;;;;;9.40;4.60;;;;;;;0.38;53.44;99798.92;212509;1322;139434;-59
2021/12/21 14:49:41;;;;;;;10.90;4.90;;;;;;;0.30;53.65;99796.02;212197;1328;138408;-58
2021/12/21 14:54:52;;;;;;;18.00;5.10;;;;;;;0.27;53.67;99795.52;212260;1329;138766;-61
2021/12/21 14:59:55;;;;;;;12.60;5.00;;;;;;;0.19;53.78;99796.81;212781;1322;138474;-60
2021/12/21 15:25:23;;;;;;;10.90;5.80;;;;;;;0.62;54.88;99797.84;214953;1319;653308;-62
2021/12/21 15:30:28;;;;;;;20.50;5.40;;;;;;;0.48;54.77;99801.98;215727;1306;137918;-59
2021/12/21 15:35:33;;;;;;;9.30;5.50;;;;;;;0.32;55.13;99809.26;216120;1309;273490;-58
2021/12/21 15:40:37;;;;;;;10.90;5.40;;;;;;;0.19;55.13;99808.67;216022;1309;138707;-61
2021/12/21 15:45:40;;;;;;;16.50;6.00;;;;;;;0.06;55.34;99801.80;215979;1308;138218;-60
2021/12/21 15:50:43;;;;;;;74.00;45.10;;;;;;;0.05;57.07;99807.90;217615;1298;137898;-59
2021/12/21 15:55:46;;;;;;;19.40;8.90;;;;;;;0.56;58.03;99808.71;217544;1297;138023;-61
2021/12/21 16:00:49;;;;;;;25.20;8.00;;;;;;;0.48;56.38;99807.73;218081;1296;138497;-60
2021/12/21 16:05:57;;;;;;;30.00;7.80;;;;;;;0.22;56.13;99812.83;218411;1296;140926;-57
2021/12/21 16:11:00;;;;;;;19.70;7.20;;;;;;;0.02;55.98;99814.91;217345;1300;137952;-59
2021/12/21 16:16:04;;;;;;;21.90;8.10;;;;;;;-0.16;56.34;99817.13;218476;1296;138833;-59
2021/12/21 16:21:07;;;;;;;21.30;7.50;;;;;;;-0.27;56.62;99817.17;218010;1299;138482;-60
2021/12/21 16:26:30;;;;;;;14.60;7.20;;;;;;;-0.36;56.83;99819.84;217631;1301;138751;-59
2021/12/21 16:31:35;;;;;;;16.20;8.20;;;;;;;-0.44;57.11;99815.36;217804;1298;138363;-61
2021/12/21 16:36:38;;;;;;;19.50;8.30;;;;;;;-0.50;57.29;99816.77;217831;1298;139047;-61
2021/12/21 16:41:43;;;;;;;16.50;7.70;;;;;;;-0.54;57.69;99818.19;217121;1301;138285;-58
2021/12/21 16:46:46;;;;;;;16.20;8.10;;;;;;;-0.55;57.75;99820.11;217580;1299;138645;-59
2021/12/21 16:51:49;;;;;;;16.30;7.00;;;;;;;-0.60;58.06;99817.69;217135;1301;138766;-60
2021/12/21 16:56:52;;;;;;;15.60;7.80;;;;;;;-0.61;58.04;99821.18;217893;1299;137884;-59
2021/12/21 17:01:55;;;;;;;117.80;62.90;;;;;;;-0.61;58.23;99821.88;217496;1298;138187;-58
2021/12/21 17:06:58;;;;;;;36.80;18.50;;;;;;;-0.12;60.41;99819.17;218111;1297;138793;-58
2021/12/21 17:12:01;;;;;;;25.90;13.10;;;;;;;0.20;58.86;99819.84;217943;1298;138308;-63
2021/12/21 17:17:04;;;;;;;26.00;13.00;;;;;;;0.04;57.87;99818.55;218006;1296;137981;-60
2021/12/21 17:22:07;;;;;;;29.20;14.10;;;;;;;-0.07;57.78;99817.23;218445;1297;137992;-62
2021/12/21 17:27:10;;;;;;;33.10;14.90;;;;;;;-0.14;57.84;99816.75;218138;1299;138294;-58
2021/12/21 17:32:14;;;;;;;31.60;15.10;;;;;;;-0.20;57.75;99815.23;218417;1297;140445;-61
2021/12/21 17:37:18;;;;;;;35.60;16.60;;;;;;;-0.25;57.85;99811.94;218709;1297;138247;-58
2021/12/21 17:42:21;;;;;;;40.10;16.80;;;;;;;-0.30;57.83;99813.19;217722;1299;139136;-60
2021/12/21 17:47:24;;;;;;;30.60;16.00;;;;;;;-0.38;57.65;99818.98;218654;1296;138039;-57
2021/12/21 17:52:27;;;;;;;27.30;14.30;;;;;;;-0.42;57.70;99817.61;217795;1299;138374;-63
2021/12/21 17:57:31;;;;;;;31.80;15.60;;;;;;;-0.45;57.78;99819.02;218067;1298;137882;-58
2021/12/21 18:02:33;;;;;;;33.50;15.30;;;;;;;-0.51;57.68;99814.52;217993;1297;138236;-60
2021/12/21 18:07:38;;;;;;;30.60;15.20;;;;;;;-0.56;57.79;99816.27;217323;1298;138866;-58
2021/12/21 18:12:42;;;;;;;31.50;15.80;;;;;;;-0.53;57.89;99818.36;217528;1299;139356;-58
2021/12/21 18:17:45;;;;;;;34.10;17.30;;;;;;;-0.53;57.86;99816.98;217363;1298;138787;-59
2021/12/21 18:22:48;;;;;;;31.00;16.10;;;;;;;-0.54;57.88;99814.54;217870;1297;138132;-58
2021/12/21 18:27:53;;;;;;;30.90;16.30;;;;;;;-0.52;57.90;99815.56;217309;1300;138656;-64
2021/12/21 18:32:57;;;;;;;33.10;15.50;;;;;;;-0.54;58.04;99806.86;217152;1302;138364;-59
2021/12/21 18:38:03;;;;;;;38.10;19.40;;;;;;;-0.53;58.07;99809.48;217989;1298;138869;-59
2021/12/21 18:43:06;;;;;;;37.80;18.60;;;;;;;-0.26;59.61;99805.67;217650;1299;140050;-58
2021/12/21 18:48:10;;;;;;;40.90;17.60;;;;;;;-0.07;58.66;99803.81;218092;1297;138628;-58
2021/12/21 18:53:13;;;;;;;40.20;17.60;;;;;;;-0.20;58.21;99804.92;217868;1299;139052;-60
2021/12/21 18:58:16;;;;;;;33.90;17.50;;;;;;;-0.32;58.10;99806.23;218237;1297;139855;-60
2021/12/21 19:03:24;;;;;;;40.80;19.20;;;;;;;-0.41;58.14;99814.30;217925;1297;139314;-57
2021/12/21 19:08:27;;;;;;;42.80;19.60;;;;;;;-0.49;58.14;99816.24;217672;1299;138899;-59
2021/12/21 19:13:30;;;;;;;43.50;21.20;;;;;;;-0.56;58.17;99814.36;218117;1298;138259;-60
2021/12/21 19:18:34;;;;;;;47.60;21.30;;;;;;;-0.58;58.27;99819.78;217395;1299;138829;-59
2021/12/21 19:23:37;;;;;;;45.60;22.70;;;;;;;-0.55;58.50;99820.64;217996;1298;139169;-59
2021/12/21 19:28:40;;;;;;;56.40;26.20;;;;;;;-0.56;58.48;99817.48;217497;1298;138127;-58
2021/12/21 19:33:43;;;;;;;55.40;27.10;;;;;;;-0.58;58.45;99821.86;217479;1298;139070;-62
2021/12/21 19:38:49;;;;;;;52.90;26.20;;;;;;;-0.57;58.73;99827.63;217604;1299;138711;-59
2021/12/21 19:43:52;;;;;;;64.50;29.90;;;;;;;-0.55;58.66;99826.73;217630;1298;138251;-59
2021/12/21 19:48:55;;;;;;;63.30;31.50;;;;;;;-0.52;58.81;99827.41;217571;1299;138037;-58
2021/12/21 19:53:58;;;;;;;73.30;32.90;;;;;;;-0.53;58.86;99833.88;217808;1298;138325;-58
2021/12/21 19:59:04;;;;;;;65.90;31.60;;;;;;;-0.58;58.73;99836.33;218062;1299;139444;-58
2021/12/21 20:04:08;;;;;;;71.40;33.50;;;;;;;-0.66;58.72;99841.77;217681;1299;139027;-56
2021/12/21 20:09:12;;;;;;;73.00;34.60;;;;;;;-0.69;58.92;99842.64;217723;1299;138735;-58
2021/12/21 20:14:15;;;;;;;78.80;34.10;;;;;;;-0.76;58.99;99847.89;217454;1300;139997;-58
2021/12/21 20:19:18;;;;;;;71.50;31.40;;;;;;;-0.83;59.09;99852.80;217749;1296;139176;-59
2021/12/21 20:24:23;;;;;;;73.90;34.40;;;;;;;-0.86;59.24;99857.50;218273;1297;138731;-60
2021/12/21 20:29:27;;;;;;;74.50;36.10;;;;;;;-0.90;59.15;99861.17;217748;1298;139461;-59
2021/12/21 20:34:32;;;;;;;75.90;37.40;;;;;;;-0.89;59.51;99859.95;218347;1299;138399;-60
2021/12/21 20:39:35;;;;;;;;;;;;;;;-0.87;59.49;99861.70;217584;1297;138253;-61
2021/12/21 20:44:38;;;;;;;81.20;38.00;;;;;;;-0.88;59.69;99863.78;217503;1299;124713;-59
2021/12/21 20:49:41;;;;;;;87.70;40.30;;;;;;;-0.88;59.78;99866.91;217118;1301;138828;-58
2021/12/21 20:54:45;;;;;;;82.60;40.50;;;;;;;-0.84;59.91;99865.52;217804;1299;139052;-58
2021/12/21 20:59:48;;;;;;;88.60;43.50;;;;;;;-0.81;60.06;99867.25;217371;1300;138757;-58
2021/12/21 21:04:51;;;;;;;91.50;44.00;;;;;;;-0.77;59.95;99870.89;217383;1299;139047;-60
2021/12/21 21:09:54;;;;;;;92.70;43.60;;;;;;;-0.72;60.24;99876.29;218124;1297;138473;-56
2021/12/21 21:14:57;;;;;;;88.90;42.50;;;;;;;-0.67;60.14;99876.96;217530;1300;138372;-58
2021/12/21 21:20:01;;;;;;;90.10;43.90;;;;;;;-0.65;60.16;99876.95;217368;1300;138439;-57
2021/12/21 21:25:05;;;;;;;102.30;44.90;;;;;;;-0.65;60.20;99887.41;218061;1298;138408;-61
2021/12/21 21:30:10;;;;;;;105.20;46.70;;;;;;;-0.66;60.30;99885.33;218010;1299;139216;-60
2021/12/21 21:35:13;;;;;;;96.10;45.40;;;;;;;-0.73;60.28;99882.56;217986;1299;139391;-58
2021/12/21 21:40:17;;;;;;;99.80;44.60;;;;;;;-0.77;60.40;99883.61;217632;1297;139711;-59
2021/12/21 21:45:20;;;;;;;93.50;43.70;;;;;;;-0.83;60.41;99884.33;218229;1297;139190;-55
2021/12/21 21:50:23;;;;;;;104.80;45.60;;;;;;;-0.88;60.34;99886.59;218010;1297;138439;-57
2021/12/21 21:55:28;;;;;;;97.80;46.30;;;;;;;-0.97;60.37;99889.92;217925;1299;138916;-58
2021/12/21 22:00:31;;;;;;;94.20;43.80;;;;;;;-1.03;60.63;99887.31;217745;1300;138792;-60
2021/12/21 22:05:34;;;;;;;89.90;42.10;;;;;;;-1.03;60.78;99892.02;217304;1299;138531;-58
2021/12/21 22:10:38;;;;;;;105.70;45.40;;;;;;;-1.04;60.80;99890.81;217371;1300;139019;-58
2021/12/21 22:15:46;;;;;;;89.00;44.30;;;;;;;-1.02;60.98;99888.54;218612;1297;139358;-59
2021/12/21 22:20:49;;;;;;;93.40;42.50;;;;;;;-1.03;61.00;99889.23;217556;1298;138649;-58
2021/12/21 22:25:52;;;;;;;89.80;42.70;;;;;;;-1.03;60.95;99892.90;217907;1297;139419;-59
2021/12/21 22:30:56;;;;;;;96.20;43.90;;;;;;;-1.04;61.01;99894.28;217944;1297;140879;-59
2021/12/21 22:36:00;;;;;;;99.00;44.80;;;;;;;-1.04;61.05;99893.42;218325;1297;141549;-59
2021/12/21 22:41:04;;;;;;;97.80;44.40;;;;;;;-1.03;61.06;99899.52;218140;1301;139155;-57
2021/12/21 22:46:07;;;;;;;100.30;44.50;;;;;;;-1.04;61.21;99891.16;217626;1299;138767;-56
2021/12/21 22:51:10;;;;;;;92.70;43.10;;;;;;;-1.01;61.34;99892.38;218265;1301;138334;-60
2021/12/21 22:56:13;;;;;;;91.40;42.50;;;;;;;-0.98;61.31;99888.88;218455;1297;138602;-60
2021/12/21 23:01:17;;;;;;;98.80;42.40;;;;;;;-0.94;61.36;99893.05;217525;1297;140015;-58
2021/12/21 23:06:21;;;;;;;90.20;42.70;;;;;;;-0.93;61.37;99890.96;217742;1298;138875;-56
2021/12/21 23:11:24;;;;;;;92.60;43.60;;;;;;;-0.93;61.31;99895.67;217668;1297;138703;-56
2021/12/21 23:16:28;;;;;;;100.20;44.60;;;;;;;-0.91;61.48;99900.89;217695;1298;138869;-57
2021/12/21 23:21:31;;;;;;;105.70;45.90;;;;;;;-0.92;61.53;99894.96;217935;1297;139402;-58
2021/12/21 23:26:34;;;;;;;101.80;46.00;;;;;;;-0.92;61.56;99898.10;217589;1298;139739;-57
2021/12/21 23:31:37;;;;;;;101.30;46.90;;;;;;;-0.92;61.52;99903.67;217455;1298;139690;-56
2021/12/21 23:36:40;;;;;;;107.60;49.50;;;;;;;-0.92;61.59;99908.90;217954;1297;173295;-58
2021/12/21 23:42:01;;;;;;;110.20;47.80;;;;;;;-0.96;61.50;99912.04;217399;1306;138325;-57
2021/12/21 23:47:05;;;;;;;107.40;48.20;;;;;;;-0.98;61.78;99913.96;217895;1299;139224;-57
2021/12/21 23:52:09;;;;;;;108.70;48.30;;;;;;;-0.95;61.85;99912.04;217344;1301;140210;-58
2021/12/21 23:57:12;;;;;;;112.00;46.20;;;;;;;-0.94;61.75;99917.09;217852;1297;141003;-57
